KNI weather

Katanning Airport
Western Australia, Australia

Public forecast

Using degrees Celsius for public forecast. Weather courtesy of forecast.io.

Closest aviation weather report (METAR) to Katanning Airport

Closest report is Albany Airport, 74.2 nm (137.3 km) S. Retrieved 2019/11/14 13:00 UTC (17 minutes ago):

YABA 141300Z AUTO 12006KT 9999 // OVC020 13/11 Q1020

Closest aviation forecast (TAF) to Katanning Airport

Closest forecast is Perth Jandakot Airport, 131.3 nm (243.2 km) NW. Retrieved 2019/11/14 12:00 UTC (1 hour ago):

TAF YPJT 141026Z 1412/1506 19010KT CAVOK FM141500 10012KT CAVOK FM150000 09014G24KT CAVOK FM150300 10010KT CAVOK